Time;durP1;ratioP1;P1;durP2;ratioP2;P2;SDS_P1;SDS_P2;PMS_P1;PMS_P2;Temp;Humidity;BMP_temperature;BMP_pressure;BME280_temperature;BME280_humidity;BME280_pressure;Samples;Min_cycle;Max_cycle;Signal;HPM_P1;HPM_P2
2023/01/07 00:01:02;;;;;;;8.50;5.40;;;11.50;99.90;;;;;;5095235;28;20184;-71
2023/01/07 00:03:28;;;;;;;6.77;5.40;;;11.50;99.90;;;;;;5096210;28;20599;-71
2023/01/07 00:06:18;;;;;;;9.70;5.60;;;11.50;99.90;;;;;;5096412;28;20179;-71
2023/01/07 00:08:46;;;;;;;6.17;5.50;;;11.40;99.90;;;;;;5086281;28;20727;-71
2023/01/07 00:11:18;;;;;;;9.53;5.43;;;11.40;99.90;;;;;;5096208;28;20256;-70
2023/01/07 00:13:45;;;;;;;7.50;5.23;;;11.40;99.90;;;;;;5095736;28;20168;-70
2023/01/07 00:16:13;;;;;;;6.77;5.40;;;11.40;99.90;;;;;;5096040;28;20262;-70
2023/01/07 00:18:39;;;;;;;6.27;5.37;;;11.40;99.90;;;;;;5096016;28;20670;-70
2023/01/07 00:21:07;;;;;;;7.10;5.43;;;11.40;99.90;;;;;;5095892;28;20179;-70
2023/01/07 00:23:35;;;;;;;11.57;6.10;;;11.40;99.90;;;;;;5096048;28;20179;-71
2023/01/07 00:26:09;;;;;;;10.07;6.10;;;11.40;99.90;;;;;;5095872;28;20654;-72
2023/01/07 00:28:38;;;;;;;10.27;5.90;;;11.40;99.90;;;;;;5095520;28;20174;-71
2023/01/07 00:31:26;;;;;;;8.97;5.90;;;11.40;99.90;;;;;;5094188;28;20207;-70
2023/01/07 00:36:29;;;;;;;10.47;5.67;;;11.40;99.90;;;;;;5095931;28;20168;-70
2023/01/07 00:38:57;;;;;;;7.93;5.80;;;11.30;99.90;;;;;;5096002;28;20509;-70
2023/01/07 00:41:24;;;;;;;9.40;6.00;;;11.30;99.90;;;;;;5095595;28;20168;-70
2023/01/07 00:43:50;;;;;;;10.17;5.83;;;11.30;99.90;;;;;;5094853;28;20219;-70
2023/01/07 00:46:15;;;;;;;10.50;5.90;;;11.30;99.90;;;;;;5095470;28;20451;-71
2023/01/07 00:48:43;;;;;;;9.90;6.20;;;11.40;99.90;;;;;;5095447;28;20221;-70
2023/01/07 00:51:11;;;;;;;12.60;6.07;;;11.30;99.90;;;;;;5095502;28;20286;-72
2023/01/07 00:53:37;;;;;;;8.83;6.27;;;11.30;99.90;;;;;;5095565;28;20175;-71
2023/01/07 00:56:03;;;;;;;6.90;5.97;;;11.30;99.90;;;;;;5095222;28;20168;-70
2023/01/07 00:58:28;;;;;;;9.17;6.03;;;11.30;99.90;;;;;;5093493;28;20233;-70
2023/01/07 01:00:55;;;;;;;7.47;6.13;;;11.30;99.90;;;;;;5095238;28;20176;-70
2023/01/07 01:03:21;;;;;;;8.37;5.70;;;11.30;99.90;;;;;;5093882;28;20635;-70
2023/01/07 01:05:47;;;;;;;8.10;5.67;;;11.20;99.90;;;;;;5095181;28;20225;-70
2023/01/07 01:08:13;;;;;;;6.47;5.83;;;11.20;99.90;;;;;;5095036;28;20317;-70
2023/01/07 01:10:38;;;;;;;9.70;5.57;;;11.20;99.90;;;;;;5094827;28;20195;-70
2023/01/07 01:13:04;;;;;;;8.23;5.53;;;11.20;99.90;;;;;;5094571;28;20168;-70
2023/01/07 01:15:30;;;;;;;5.90;5.33;;;11.20;99.90;;;;;;5094770;28;20554;-70
2023/01/07 01:17:55;;;;;;;9.43;6.00;;;11.20;99.90;;;;;;5094766;28;20175;-70
2023/01/07 01:20:21;;;;;;;6.53;5.30;;;11.30;99.90;;;;;;5094933;28;20160;-70
2023/01/07 01:22:47;;;;;;;6.50;5.63;;;11.30;99.90;;;;;;5094692;28;20175;-70
2023/01/07 01:25:13;;;;;;;6.87;5.83;;;11.20;99.90;;;;;;5094459;28;20179;-70
2023/01/07 01:27:38;;;;;;;5.87;5.23;;;11.20;99.90;;;;;;5094296;28;20168;-70
2023/01/07 01:30:05;;;;;;;7.63;5.57;;;11.20;99.90;;;;;;5094420;28;20163;-70
2023/01/07 01:32:31;;;;;;;7.67;6.10;;;11.20;99.90;;;;;;5094535;28;20267;-70
2023/01/07 01:34:56;;;;;;;9.47;5.80;;;11.20;99.90;;;;;;5094577;28;20309;-70
2023/01/07 01:37:22;;;;;;;8.00;5.47;;;11.20;99.90;;;;;;5094379;28;20167;-70
2023/01/07 01:39:48;;;;;;;6.87;5.40;;;11.30;99.90;;;;;;5094144;28;20163;-70
2023/01/07 01:42:21;;;;;;;6.40;5.70;;;11.30;99.90;;;;;;5093763;28;20742;-70
2023/01/07 01:44:49;;;;;;;6.80;4.90;;;11.30;99.90;;;;;;5093367;28;20654;-70
2023/01/07 01:47:21;;;;;;;6.70;5.40;;;11.40;99.90;;;;;;5092924;28;20528;-70
2023/01/07 01:49:53;;;;;;;5.80;5.20;;;11.40;99.90;;;;;;5094171;28;20164;-70
2023/01/07 01:52:22;;;;;;;5.87;5.30;;;11.40;99.90;;;;;;5094270;28;20253;-69
2023/01/07 01:54:53;;;;;;;6.30;5.43;;;11.50;99.90;;;;;;5093697;28;20251;-69
2023/01/07 01:57:20;;;;;;;5.80;4.97;;;11.50;99.90;;;;;;5094081;28;20246;-69
2023/01/07 01:59:50;;;;;;;6.20;4.83;;;11.60;99.90;;;;;;5094164;28;20164;-70
2023/01/07 02:02:20;;;;;;;6.00;5.10;;;11.60;99.90;;;;;;5094362;28;20176;-70
2023/01/07 02:04:46;;;;;;;12.57;8.07;;;11.70;99.90;;;;;;5094365;28;20164;-71
2023/01/07 02:07:15;;;;;;;8.37;6.53;;;11.70;99.90;;;;;;5093806;28;20172;-70
2023/01/07 02:09:40;;;;;;;5.63;4.70;;;11.60;99.90;;;;;;5093714;28;20168;-70
2023/01/07 02:12:36;;;;;;;5.50;4.80;;;11.70;99.90;;;;;;5093715;28;20310;-70
2023/01/07 02:15:35;;;;;;;9.63;4.70;;;11.80;99.90;;;;;;5094058;28;20270;-71
2023/01/07 02:18:16;;;;;;;5.13;4.30;;;11.80;99.90;;;;;;5011727;28;20185;-70
2023/01/07 02:21:00;;;;;;;5.93;4.60;;;11.80;99.90;;;;;;4995359;28;20182;-70
2023/01/07 02:23:59;;;;;;;5.50;5.03;;;11.80;99.90;;;;;;5011550;28;20201;-70
2023/01/07 02:26:43;;;;;;;5.00;4.60;;;11.80;99.90;;;;;;5011767;28;20179;-71
2023/01/07 02:29:33;;;;;;;4.33;4.00;;;11.90;99.90;;;;;;5011732;28;20187;-70
2023/01/07 02:31:58;;;;;;;5.33;4.60;;;11.90;99.90;;;;;;4995196;28;20757;-71
2023/01/07 02:34:38;;;;;;;5.93;4.47;;;11.90;99.90;;;;;;5011551;28;20277;-69
2023/01/07 02:37:15;;;;;;;4.50;4.10;;;11.90;99.90;;;;;;5011536;28;20354;-70
2023/01/07 02:39:56;;;;;;;4.93;3.80;;;11.90;99.90;;;;;;5011260;28;20261;-70
2023/01/07 02:42:39;;;;;;;5.13;4.30;;;11.80;99.90;;;;;;5011349;28;20229;-69
2023/01/07 02:45:32;;;;;;;4.17;3.77;;;11.80;99.90;;;;;;4995203;28;20170;-69
2023/01/07 02:48:05;;;;;;;5.17;4.00;;;11.80;99.90;;;;;;5011448;28;20267;-70
2023/01/07 02:50:30;;;;;;;6.23;3.67;;;11.80;99.90;;;;;;4995044;28;20229;-70
2023/01/07 02:52:56;;;;;;;3.63;3.33;;;11.80;99.90;;;;;;5011093;28;20180;-70
2023/01/07 02:55:28;;;;;;;7.93;4.03;;;11.80;99.90;;;;;;5069839;28;20559;-71
2023/01/07 02:58:20;;;;;;;7.40;3.80;;;11.80;99.90;;;;;;5078504;28;20639;-70
2023/01/07 03:00:55;;;;;;;3.63;3.33;;;11.80;99.90;;;;;;5079946;28;20187;-69
2023/01/07 03:03:32;;;;;;;3.90;3.60;;;11.90;99.90;;;;;;5079640;28;20178;-69
2023/01/07 03:06:41;;;;;;;5.13;3.93;;;11.80;99.90;;;;;;5079790;28;20171;-69
2023/01/07 03:09:14;;;;;;;3.53;3.13;;;11.80;99.90;;;;;;4978347;28;20675;-69
2023/01/07 03:12:20;;;;;;;5.90;3.77;;;11.80;99.90;;;;;;4978804;28;20215;-68
2023/01/07 03:14:48;;;;;;;4.57;3.00;;;11.90;99.90;;;;;;4978212;28;20223;-70
2023/01/07 03:17:25;;;;;;;3.83;3.20;;;11.90;99.90;;;;;;4978649;28;20757;-69
2023/01/07 03:19:56;;;;;;;4.53;2.90;;;11.90;99.90;;;;;;4978683;28;20190;-69
2023/01/07 03:22:25;;;;;;;3.60;3.00;;;11.90;99.90;;;;;;4978131;28;20644;-68
2023/01/07 03:24:53;;;;;;;4.87;2.90;;;11.90;99.90;;;;;;4978505;28;20636;-70
2023/01/07 03:27:21;;;;;;;3.90;2.93;;;11.90;99.90;;;;;;4978338;28;20228;-68
2023/01/07 03:29:48;;;;;;;3.80;2.90;;;11.90;99.90;;;;;;4978705;28;20283;-69
2023/01/07 03:32:33;;;;;;;4.27;2.90;;;12.00;99.90;;;;;;4978517;28;20290;-69
2023/01/07 03:34:59;;;;;;;3.37;2.80;;;12.00;99.90;;;;;;4978395;28;20210;-69
2023/01/07 03:37:26;;;;;;;2.80;2.40;;;11.90;99.90;;;;;;4978000;28;20203;-70
2023/01/07 03:39:53;;;;;;;4.93;2.60;;;11.90;99.90;;;;;;4978356;28;20179;-69
2023/01/07 03:42:38;;;;;;;2.50;2.30;;;11.80;99.90;;;;;;4978125;28;20242;-70
2023/01/07 03:45:10;;;;;;;2.57;2.37;;;11.90;99.90;;;;;;4990482;28;20186;-71
2023/01/07 03:47:37;;;;;;;3.67;2.50;;;11.90;99.90;;;;;;5079492;28;20237;-69
2023/01/07 03:50:03;;;;;;;3.33;2.30;;;11.90;99.90;;;;;;5078177;28;20168;-70
2023/01/07 03:52:29;;;;;;;3.17;2.30;;;11.80;99.90;;;;;;5078953;28;20709;-69
2023/01/07 03:54:54;;;;;;;2.27;2.17;;;11.80;99.90;;;;;;5079284;28;20176;-68
2023/01/07 03:57:20;;;;;;;2.50;2.30;;;11.80;99.90;;;;;;5079247;28;20169;-69
2023/01/07 03:59:46;;;;;;;2.47;2.10;;;11.80;99.90;;;;;;5077849;28;20647;-68
2023/01/07 04:02:11;;;;;;;5.03;1.97;;;11.70;99.90;;;;;;5079306;28;20182;-70
2023/01/07 04:04:37;;;;;;;2.57;2.37;;;11.60;99.90;;;;;;5079295;28;20658;-69
2023/01/07 04:07:03;;;;;;;2.70;2.30;;;11.50;99.90;;;;;;5075801;28;20169;-69
2023/01/07 04:09:28;;;;;;;2.20;2.00;;;11.50;99.90;;;;;;5075903;28;20165;-70
2023/01/07 04:11:54;;;;;;;2.60;1.87;;;11.50;99.90;;;;;;5075988;28;20208;-69
2023/01/07 04:14:20;;;;;;;3.00;2.00;;;11.40;99.90;;;;;;5075608;28;20196;-70
2023/01/07 04:16:45;;;;;;;4.07;2.07;;;11.50;99.90;;;;;;5075832;28;20177;-69
2023/01/07 04:19:11;;;;;;;3.07;1.87;;;11.50;99.90;;;;;;5075742;28;20200;-70
2023/01/07 04:21:37;;;;;;;3.20;2.10;;;11.50;99.90;;;;;;5075157;28;20176;-68
2023/01/07 04:24:02;;;;;;;2.27;1.73;;;11.50;99.90;;;;;;5075708;28;20255;-69
2023/01/07 04:26:28;;;;;;;2.50;1.80;;;11.50;99.90;;;;;;5075652;28;20172;-69
2023/01/07 04:28:53;;;;;;;4.20;1.87;;;11.50;99.90;;;;;;5075689;28;20259;-69
2023/01/07 04:31:19;;;;;;;2.13;1.93;;;11.50;99.90;;;;;;5075489;28;20212;-70
2023/01/07 04:33:45;;;;;;;2.77;2.00;;;11.50;99.90;;;;;;5074045;28;20169;-69
2023/01/07 04:36:12;;;;;;;2.60;1.60;;;11.50;99.90;;;;;;5075388;28;20647;-69
2023/01/07 04:38:38;;;;;;;2.70;1.70;;;11.50;99.90;;;;;;5075436;28;20168;-69
2023/01/07 04:41:03;;;;;;;3.77;1.70;;;11.50;99.90;;;;;;5075183;28;20241;-70
2023/01/07 04:43:29;;;;;;;5.03;1.97;;;11.50;99.90;;;;;;5088063;28;20615;-70
2023/01/07 04:45:55;;;;;;;2.10;1.80;;;11.50;99.90;;;;;;5095609;28;20190;-70
2023/01/07 04:48:20;;;;;;;3.23;1.30;;;11.50;99.90;;;;;;5094988;28;20172;-70
2023/01/07 04:50:47;;;;;;;1.50;1.40;;;11.50;99.90;;;;;;5095447;28;20363;-69
2023/01/07 04:53:12;;;;;;;2.03;1.73;;;11.50;99.90;;;;;;5094014;28;20175;-69
2023/01/07 04:55:38;;;;;;;2.67;1.40;;;11.50;99.90;;;;;;5093842;28;20263;-70
2023/01/07 04:58:04;;;;;;;3.27;1.90;;;11.60;99.90;;;;;;5094775;28;20171;-70
2023/01/07 05:00:30;;;;;;;1.50;1.40;;;11.60;99.90;;;;;;5095174;28;20697;-70
2023/01/07 05:02:55;;;;;;;1.60;1.50;;;11.60;99.90;;;;;;5094670;28;20654;-70
2023/01/07 05:05:21;;;;;;;2.07;1.50;;;11.60;99.90;;;;;;5094853;28;20179;-68
2023/01/07 05:07:47;;;;;;;1.40;1.30;;;11.60;99.90;;;;;;5094901;28;20176;-69
2023/01/07 05:10:12;;;;;;;1.77;1.67;;;11.60;99.90;;;;;;5094931;28;20176;-70
2023/01/07 05:12:38;;;;;;;3.90;1.70;;;11.60;99.90;;;;;;5094441;28;20658;-70
2023/01/07 05:15:05;;;;;;;1.83;1.37;;;11.60;99.90;;;;;;5094572;28;20191;-68
2023/01/07 05:17:31;;;;;;;1.60;1.30;;;11.60;99.90;;;;;;5093998;28;20167;-70
2023/01/07 05:19:56;;;;;;;1.40;1.30;;;11.60;99.90;;;;;;5094812;28;20176;-68
2023/01/07 05:22:23;;;;;;;2.70;1.60;;;11.60;99.90;;;;;;5093315;28;20263;-70
2023/01/07 05:24:48;;;;;;;1.70;1.60;;;11.60;99.90;;;;;;5094610;28;20164;-69
2023/01/07 05:27:14;;;;;;;3.03;1.43;;;11.60;99.90;;;;;;5094222;28;20251;-69
2023/01/07 05:29:40;;;;;;;1.63;1.10;;;11.60;99.90;;;;;;5094475;28;20520;-69
2023/01/07 05:32:05;;;;;;;1.70;1.60;;;11.60;99.90;;;;;;5092891;28;20211;-69
2023/01/07 05:34:31;;;;;;;3.43;1.40;;;11.50;99.90;;;;;;5094442;28;20262;-69
2023/01/07 05:36:56;;;;;;;1.50;1.40;;;11.50;99.90;;;;;;5094266;28;20180;-69
2023/01/07 05:39:22;;;;;;;2.40;1.27;;;11.50;99.90;;;;;;5094738;28;20573;-69
2023/01/07 05:41:48;;;;;;;1.40;1.30;;;11.50;99.90;;;;;;5093890;28;20194;-70
2023/01/07 05:44:14;;;;;;;1.43;1.33;;;11.50;99.90;;;;;;5093248;28;20228;-68
2023/01/07 05:46:39;;;;;;;1.50;1.40;;;11.50;99.90;;;;;;5093817;28;20592;-69
2023/01/07 05:49:05;;;;;;;1.30;1.20;;;11.50;99.90;;;;;;5094295;28;20168;-69
2023/01/07 05:51:31;;;;;;;2.03;1.30;;;11.50;99.90;;;;;;5092670;28;20568;-69
2023/01/07 05:53:57;;;;;;;2.93;1.50;;;11.40;99.90;;;;;;5093982;28;20176;-69
2023/01/07 05:56:22;;;;;;;1.70;1.50;;;11.40;99.90;;;;;;5093324;28;20168;-69
2023/01/07 05:58:48;;;;;;;2.40;1.40;;;11.40;99.90;;;;;;5093886;28;20179;-69
2023/01/07 06:01:13;;;;;;;1.53;1.40;;;11.40;99.90;;;;;;5093677;28;20168;-69
2023/01/07 06:03:39;;;;;;;1.53;1.40;;;11.30;99.90;;;;;;5093903;28;20627;-69
2023/01/07 06:06:07;;;;;;;1.37;1.20;;;11.30;99.90;;;;;;5093993;28;20264;-69
2023/01/07 06:08:34;;;;;;;1.77;1.20;;;11.30;99.90;;;;;;5093683;28;20225;-69
2023/01/07 06:11:00;;;;;;;1.23;1.13;;;11.40;99.90;;;;;;5093314;28;20248;-69
2023/01/07 06:13:25;;;;;;;1.37;1.30;;;11.40;99.90;;;;;;5093470;28;20577;-69
2023/01/07 06:15:51;;;;;;;1.67;1.57;;;11.40;99.90;;;;;;5093288;28;20179;-69
2023/01/07 06:18:16;;;;;;;2.20;1.67;;;11.40;99.90;;;;;;5093690;28;20172;-69
2023/01/07 06:20:42;;;;;;;3.37;1.50;;;11.40;99.90;;;;;;5093734;28;20187;-69
2023/01/07 06:23:09;;;;;;;1.73;1.43;;;11.40;99.90;;;;;;5093665;28;20629;-68
2023/01/07 06:25:34;;;;;;;1.87;1.43;;;11.40;99.90;;;;;;5093462;28;20168;-68
2023/01/07 06:28:00;;;;;;;3.03;1.20;;;11.40;99.90;;;;;;5093371;28;20247;-68
2023/01/07 06:30:26;;;;;;;1.40;1.30;;;11.40;99.90;;;;;;5092384;28;20191;-69
2023/01/07 06:32:53;;;;;;;3.00;1.50;;;11.40;99.90;;;;;;5092117;28;20179;-70
2023/01/07 06:35:18;;;;;;;1.83;1.50;;;11.40;99.90;;;;;;5093792;28;20168;-69
2023/01/07 06:37:44;;;;;;;1.20;1.20;;;11.40;99.90;;;;;;5093163;28;20183;-69
2023/01/07 06:40:10;;;;;;;1.20;1.10;;;11.30;99.90;;;;;;5092909;28;20179;-69
2023/01/07 06:42:36;;;;;;;1.60;1.50;;;11.30;99.90;;;;;;5092782;28;20555;-68
2023/01/07 06:45:02;;;;;;;1.13;1.00;;;11.30;99.90;;;;;;5093233;28;20186;-69
2023/01/07 06:47:27;;;;;;;1.17;1.17;;;11.30;99.90;;;;;;5092595;28;20164;-69
2023/01/07 06:49:53;;;;;;;1.30;1.20;;;11.30;99.90;;;;;;5093080;28;20179;-70
2023/01/07 06:52:19;;;;;;;1.80;1.20;;;11.30;99.90;;;;;;5093042;28;20203;-68
2023/01/07 06:54:44;;;;;;;1.20;1.20;;;11.30;99.90;;;;;;5092950;28;20251;-69
2023/01/07 06:57:11;;;;;;;1.30;1.30;;;11.30;99.90;;;;;;5092253;28;20229;-69
2023/01/07 06:59:36;;;;;;;2.57;1.47;;;11.30;99.90;;;;;;5092911;28;20527;-70
2023/01/07 07:02:02;;;;;;;1.17;1.10;;;11.40;99.90;;;;;;5093028;28;20171;-70
2023/01/07 07:04:28;;;;;;;0.90;0.90;;;11.40;99.90;;;;;;5092979;28;20160;-69
2023/01/07 07:06:53;;;;;;;1.87;1.67;;;11.40;99.90;;;;;;5093076;28;20171;-68
2023/01/07 07:09:19;;;;;;;1.83;1.43;;;11.40;99.90;;;;;;5092797;28;20179;-69
2023/01/07 07:11:44;;;;;;;2.30;1.33;;;11.40;99.90;;;;;;5092492;28;20567;-69
2023/01/07 07:14:10;;;;;;;1.83;1.40;;;11.40;99.90;;;;;;5092671;28;20187;-69
2023/01/07 07:16:36;;;;;;;1.50;1.40;;;11.40;99.90;;;;;;5092644;28;20270;-69
2023/01/07 07:19:02;;;;;;;1.00;1.00;;;11.40;99.90;;;;;;5092958;28;20168;-69
2023/01/07 07:21:27;;;;;;;2.20;1.30;;;11.40;99.90;;;;;;5092684;28;20172;-68
2023/01/07 07:23:53;;;;;;;1.57;1.13;;;11.40;99.90;;;;;;5092858;28;20170;-69
2023/01/07 07:26:18;;;;;;;1.37;1.20;;;11.40;99.90;;;;;;5092689;28;20176;-69
2023/01/07 07:28:44;;;;;;;0.90;0.90;;;11.50;99.90;;;;;;5092572;28;20630;-69
2023/01/07 07:31:10;;;;;;;2.30;1.03;;;11.50;99.90;;;;;;5092428;28;20203;-68
2023/01/07 07:33:36;;;;;;;2.73;1.27;;;11.50;99.90;;;;;;5091542;28;20171;-69
2023/01/07 07:36:01;;;;;;;1.00;1.00;;;11.60;99.90;;;;;;5092558;28;20180;-69
2023/01/07 07:38:27;;;;;;;2.87;1.10;;;11.60;99.90;;;;;;5092406;28;20233;-69
2023/01/07 07:40:53;;;;;;;4.13;1.13;;;11.60;99.90;;;;;;5092457;28;20172;-70
2023/01/07 07:43:19;;;;;;;1.83;1.30;;;11.70;99.90;;;;;;5095131;28;20228;-69
2023/01/07 07:45:44;;;;;;;2.13;1.17;;;11.70;99.90;;;;;;5096101;28;20191;-69
2023/01/07 07:48:15;;;;;;;0.90;0.90;;;11.60;99.90;;;;;;5096408;28;20184;-69
2023/01/07 07:50:41;;;;;;;1.13;0.90;;;11.60;99.90;;;;;;5096138;28;20235;-68
2023/01/07 07:53:08;;;;;;;2.13;1.10;;;11.60;99.90;;;;;;5096183;28;20180;-68
2023/01/07 07:55:37;;;;;;;1.70;1.10;;;11.50;99.90;;;;;;5095794;28;20171;-70
2023/01/07 07:58:02;;;;;;;1.07;1.00;;;11.60;99.90;;;;;;5095417;28;20201;-68
2023/01/07 08:00:28;;;;;;;1.10;0.97;;;11.60;99.90;;;;;;5096239;28;20271;-68
2023/01/07 08:02:59;;;;;;;1.10;1.00;;;11.60;99.90;;;;;;5096193;28;20172;-69
2023/01/07 08:05:26;;;;;;;1.00;1.00;;;11.50;99.90;;;;;;5095907;28;20172;-68
2023/01/07 08:07:52;;;;;;;1.20;1.10;;;11.50;99.90;;;;;;5095652;28;20488;-69
2023/01/07 08:10:19;;;;;;;0.70;0.70;;;11.50;99.90;;;;;;5095871;28;20180;-68
2023/01/07 08:12:45;;;;;;;1.23;1.20;;;11.50;99.90;;;;;;5095591;28;20203;-69
2023/01/07 08:15:11;;;;;;;1.30;1.17;;;11.50;99.90;;;;;;5095716;28;20643;-68
2023/01/07 08:17:37;;;;;;;1.00;1.00;;;11.50;99.90;;;;;;5095238;28;20187;-69
2023/01/07 08:20:04;;;;;;;1.30;1.20;;;11.50;99.90;;;;;;5095609;28;20179;-68
2023/01/07 08:22:30;;;;;;;1.33;1.23;;;11.50;99.90;;;;;;5095688;28;20172;-68
2023/01/07 08:24:55;;;;;;;1.03;1.03;;;11.50;99.90;;;;;;5095258;28;20175;-69
2023/01/07 08:27:21;;;;;;;1.60;1.30;;;11.50;99.90;;;;;;5095061;28;20180;-69
2023/01/07 08:29:47;;;;;;;2.10;1.23;;;11.50;99.90;;;;;;5095346;28;20168;-69
2023/01/07 08:32:13;;;;;;;1.80;1.10;;;11.50;99.90;;;;;;5095401;28;20249;-69
2023/01/07 08:34:38;;;;;;;2.70;1.27;;;11.50;99.90;;;;;;5095143;28;20172;-69
2023/01/07 08:37:04;;;;;;;1.50;1.20;;;11.50;99.90;;;;;;5095174;28;20179;-69
2023/01/07 08:39:29;;;;;;;1.30;1.20;;;11.50;99.90;;;;;;5095578;28;20168;-69
2023/01/07 08:41:55;;;;;;;1.17;1.10;;;11.60;99.90;;;;;;5095038;28;20247;-68
2023/01/07 08:44:20;;;;;;;1.80;1.50;;;11.70;99.90;;;;;;5093387;28;20227;-69
2023/01/07 08:46:47;;;;;;;1.40;1.30;;;11.80;99.90;;;;;;5094756;28;20204;-68
2023/01/07 08:49:13;;;;;;;1.17;1.17;;;12.00;99.90;;;;;;5094848;28;20225;-69
2023/01/07 08:51:38;;;;;;;1.97;1.60;;;12.10;99.90;;;;;;5094620;28;20223;-70
2023/01/07 08:54:04;;;;;;;1.63;1.27;;;12.20;99.90;;;;;;5094417;28;20217;-69
2023/01/07 08:56:32;;;;;;;1.37;1.27;;;12.40;99.90;;;;;;5094523;28;20182;-69
2023/01/07 08:58:58;;;;;;;1.50;1.40;;;12.40;99.90;;;;;;5093729;28;20172;-68
2023/01/07 09:01:23;;;;;;;3.43;1.60;;;12.60;99.90;;;;;;5095139;28;20176;-70
2023/01/07 09:03:49;;;;;;;2.60;1.50;;;12.90;99.90;;;;;;5095007;28;20608;-69
2023/01/07 09:06:14;;;;;;;2.10;1.60;;;13.10;99.90;;;;;;5094350;28;20317;-70
2023/01/07 09:08:40;;;;;;;1.43;1.33;;;13.20;99.90;;;;;;5094863;28;20172;-69
2023/01/07 09:11:06;;;;;;;1.50;1.40;;;13.40;99.90;;;;;;5094322;28;20238;-68
2023/01/07 09:13:31;;;;;;;1.20;1.20;;;13.40;99.90;;;;;;5094317;28;20208;-69
2023/01/07 09:15:58;;;;;;;1.57;1.47;;;13.70;99.90;;;;;;5094670;28;20557;-69
2023/01/07 09:18:24;;;;;;;1.70;1.30;;;13.80;99.90;;;;;;5093530;28;20207;-69
2023/01/07 09:20:50;;;;;;;2.50;1.33;;;13.90;99.90;;;;;;5094689;28;20692;-69
2023/01/07 09:23:15;;;;;;;1.83;1.60;;;14.00;99.90;;;;;;5094500;28;20576;-69
2023/01/07 09:25:41;;;;;;;1.17;1.13;;;13.80;99.90;;;;;;5094336;28;20195;-70
2023/01/07 09:28:07;;;;;;;2.07;1.33;;;13.70;99.90;;;;;;5094149;28;20210;-69
2023/01/07 09:30:33;;;;;;;1.50;1.40;;;13.50;99.90;;;;;;5094459;28;20172;-69
2023/01/07 09:32:59;;;;;;;1.60;1.50;;;13.50;99.90;;;;;;5094159;28;20191;-69
2023/01/07 09:35:24;;;;;;;1.73;1.30;;;13.60;99.90;;;;;;5094418;28;20175;-70
2023/01/07 09:37:50;;;;;;;1.47;1.33;;;13.90;99.90;;;;;;5094109;28;20180;-69
2023/01/07 09:40:37;;;;;;;1.33;1.33;;;14.20;99.90;;;;;;5093636;28;20179;-69
2023/01/07 09:43:41;;;;;;;1.53;1.30;;;14.30;99.90;;;;;;5093752;28;20246;-69
2023/01/07 09:46:09;;;;;;;1.60;1.47;;;14.20;99.90;;;;;;5094033;28;20175;-70
2023/01/07 09:48:40;;;;;;;1.60;1.50;;;14.30;99.90;;;;;;5093735;28;20204;-70
2023/01/07 09:51:20;;;;;;;1.40;1.30;;;14.40;99.90;;;;;;5094015;28;20253;-70
2023/01/07 09:53:52;;;;;;;1.30;1.20;;;14.30;99.90;;;;;;5093698;28;20203;-70
2023/01/07 09:56:27;;;;;;;1.50;1.40;;;14.20;99.90;;;;;;5093737;28;20179;-70
2023/01/07 09:58:53;;;;;;;1.53;1.20;;;14.50;99.90;;;;;;5091566;28;20163;-69
2023/01/07 10:01:27;;;;;;;1.60;1.50;;;14.80;99.90;;;;;;5093768;28;20294;-69
2023/01/07 10:04:28;;;;;;;1.50;1.40;;;15.10;99.90;;;;;;5093570;28;20191;-69
2023/01/07 10:06:57;;;;;;;1.47;1.30;;;15.20;99.90;;;;;;5075762;28;20179;-68
2023/01/07 10:09:58;;;;;;;1.50;1.40;;;15.00;99.90;;;;;;5092954;28;20180;-69
2023/01/07 10:12:41;;;;;;;1.63;1.50;;;15.20;99.90;;;;;;5087885;28;20706;-69
2023/01/07 10:15:18;;;;;;;1.50;1.40;;;15.30;99.90;;;;;;5093717;28;20275;-70
2023/01/07 10:18:24;;;;;;;1.50;1.40;;;15.20;99.90;;;;;;5092788;28;20183;-71
2023/01/07 10:20:55;;;;;;;1.00;1.00;;;15.30;99.90;;;;;;5093156;28;20174;-69
2023/01/07 10:23:27;;;;;;;1.50;1.40;;;14.90;99.90;;;;;;5092745;28;20159;-69
2023/01/07 10:25:55;;;;;;;4.40;1.60;;;14.80;99.90;;;;;;5092824;28;20658;-69
2023/01/07 10:28:23;;;;;;;3.03;1.23;;;14.60;99.90;;;;;;5093261;28;20181;-70
2023/01/07 10:30:51;;;;;;;1.30;1.20;;;14.60;99.90;;;;;;5092695;28;20586;-69
2023/01/07 10:33:27;;;;;;;1.57;1.20;;;14.40;99.90;;;;;;5092836;28;20168;-69
2023/01/07 10:36:16;;;;;;;2.40;1.30;;;14.50;99.90;;;;;;5093047;28;20160;-69
2023/01/07 10:38:50;;;;;;;1.30;1.30;;;14.20;99.90;;;;;;5080362;28;20202;-69
2023/01/07 10:41:24;;;;;;;1.40;1.30;;;14.20;99.90;;;;;;5092719;28;20175;-69
2023/01/07 10:44:37;;;;;;;1.70;1.60;;;14.10;99.90;;;;;;5092334;28;20725;-70
2023/01/07 10:47:21;;;;;;;1.40;1.30;;;14.20;99.90;;;;;;5010355;28;20177;-69
2023/01/07 10:50:43;;;;;;;1.50;1.40;;;14.40;99.90;;;;;;5011010;28;20187;-70
2023/01/07 10:53:37;;;;;;;2.30;1.60;;;14.60;99.90;;;;;;4933659;29;20248;-69
2023/01/07 10:56:14;;;;;;;1.70;1.60;;;14.40;99.90;;;;;;4933326;29;20185;-69
2023/01/07 10:58:42;;;;;;;1.73;1.63;;;14.60;99.90;;;;;;4933681;29;20186;-70
2023/01/07 11:01:17;;;;;;;1.73;1.60;;;15.00;99.90;;;;;;4933086;29;20213;-69
2023/01/07 11:03:42;;;;;;;2.83;2.03;;;15.00;99.90;;;;;;4933579;29;20195;-71
2023/01/07 11:06:13;;;;;;;1.90;1.65;;;15.30;99.90;;;;;;4932783;29;20178;-70
2023/01/07 11:08:41;;;;;;;3.27;1.57;;;15.30;99.90;;;;;;4933167;29;20565;-69
2023/01/07 11:11:14;;;;;;;1.52;1.42;;;15.00;99.90;;;;;;4932630;29;20315;-70
2023/01/07 11:13:44;;;;;;;1.60;1.50;;;14.70;99.90;;;;;;4933234;29;20181;-70
2023/01/07 11:16:20;;;;;;;1.80;1.70;;;15.00;99.90;;;;;;4934540;29;20177;-70
2023/01/07 11:18:55;;;;;;;1.70;1.60;;;15.30;99.90;;;;;;4921020;29;20263;-69
2023/01/07 11:21:30;;;;;;;1.50;1.30;;;15.20;99.90;;;;;;5005423;28;20201;-68
2023/01/07 11:23:56;;;;;;;1.73;1.63;;;15.30;99.90;;;;;;5065960;28;20179;-70
2023/01/07 11:26:21;;;;;;;2.10;2.00;;;15.30;99.90;;;;;;5096267;28;20630;-70
2023/01/07 11:28:59;;;;;;;2.00;1.90;;;15.40;99.90;;;;;;5096634;28;20263;-70
2023/01/07 11:31:43;;;;;;;2.03;1.88;;;15.50;99.90;;;;;;5096353;28;20207;-70
2023/01/07 11:34:26;;;;;;;1.52;1.42;;;16.00;99.90;;;;;;5095662;28;20167;-69
2023/01/07 11:36:51;;;;;;;2.15;2.03;;;15.50;99.60;;;;;;5095989;28;20229;-69
2023/01/07 11:39:18;;;;;;;1.70;1.60;;;15.30;99.90;;;;;;5096176;28;20172;-69
2023/01/07 11:41:52;;;;;;;2.00;1.65;;;15.20;99.90;;;;;;5096026;28;20611;-71
2023/01/07 11:44:18;;;;;;;2.38;1.95;;;15.40;99.90;;;;;;5095124;28;20214;-70
2023/01/07 11:46:44;;;;;;;1.67;1.58;;;15.30;99.90;;;;;;5096426;28;20645;-70
2023/01/07 11:49:26;;;;;;;1.80;1.70;;;15.40;99.90;;;;;;5096014;28;20748;-69
2023/01/07 11:51:52;;;;;;;1.95;1.60;;;15.20;99.90;;;;;;5096011;28;20196;-70
2023/01/07 11:54:21;;;;;;;2.20;1.80;;;14.90;99.90;;;;;;5096159;28;20164;-69
2023/01/07 11:56:47;;;;;;;1.90;1.80;;;14.80;99.90;;;;;;5095185;28;20179;-69
2023/01/07 11:59:15;;;;;;;2.00;1.90;;;14.70;99.90;;;;;;5096294;28;20190;-69
2023/01/07 12:01:55;;;;;;;1.90;1.80;;;14.50;99.90;;;;;;5095827;28;20172;-69
2023/01/07 12:04:26;;;;;;;3.17;2.00;;;13.90;99.90;;;;;;5095565;28;20221;-69
2023/01/07 12:06:54;;;;;;;2.80;1.50;;;13.70;99.90;;;;;;5095019;28;20176;-70
2023/01/07 12:09:23;;;;;;;19.27;13.50;;;13.90;99.90;;;;;;5095317;28;20172;-70
2023/01/07 12:11:50;;;;;;;3.33;2.57;;;14.20;99.90;;;;;;5095520;28;20246;-69
2023/01/07 12:14:15;;;;;;;2.43;2.20;;;14.10;99.90;;;;;;5095916;28;20188;-69
2023/01/07 12:16:45;;;;;;;59.43;39.93;;;13.80;99.90;;;;;;5095800;28;20540;-70
2023/01/07 12:19:17;;;;;;;16.97;11.07;;;13.60;99.90;;;;;;5095399;28;20195;-70
2023/01/07 12:22:16;;;;;;;104.07;79.07;;;13.80;99.90;;;;;;5094845;28;20321;-69
2023/01/07 12:24:53;;;;;;;4.03;3.07;;;14.00;99.90;;;;;;5095575;28;20174;-69
2023/01/07 12:27:28;;;;;;;1.93;1.70;;;13.90;99.90;;;;;;5093835;28;20164;-69
2023/01/07 12:30:19;;;;;;;6.67;5.17;;;13.70;99.90;;;;;;5095324;28;20178;-69
2023/01/07 12:33:31;;;;;;;20.77;18.43;;;13.60;99.90;;;;;;5094817;28;20235;-69
2023/01/07 12:36:07;;;;;;;1.53;1.40;;;13.30;99.90;;;;;;5013306;28;20213;-71
2023/01/07 12:38:39;;;;;;;1.90;1.80;;;13.20;99.90;;;;;;5090463;28;20266;-70
2023/01/07 12:41:20;;;;;;;4.70;4.33;;;13.10;99.90;;;;;;5094401;28;20168;-69
2023/01/07 12:44:01;;;;;;;4.73;4.43;;;13.30;99.90;;;;;;5093941;28;20269;-69
2023/01/07 12:46:36;;;;;;;1.50;1.40;;;13.30;99.90;;;;;;5094865;28;20526;-69
2023/01/07 12:49:21;;;;;;;1.50;1.40;;;13.30;99.90;;;;;;5094568;28;20172;-69
2023/01/07 12:51:59;;;;;;;1.80;1.70;;;13.40;99.90;;;;;;5094780;28;20211;-69
2023/01/07 12:54:43;;;;;;;2.10;1.93;;;13.40;99.90;;;;;;5094702;28;20623;-69
2023/01/07 12:57:22;;;;;;;2.50;2.30;;;13.50;99.90;;;;;;5094503;28;20187;-70
2023/01/07 12:59:47;;;;;;;6.27;5.60;;;13.60;99.90;;;;;;5094970;28;20203;-71
2023/01/07 13:02:22;;;;;;;2.33;1.90;;;13.50;99.90;;;;;;5094469;28;20650;-70
2023/01/07 13:05:09;;;;;;;3.10;2.90;;;13.40;99.90;;;;;;5094351;28;20618;-69